createdAt,value
2018-06-21T00:01:16.531Z,57.20
2018-06-21T00:04:19.675Z,56.89
2018-06-21T00:07:22.807Z,56.52
2018-06-21T00:10:25.983Z,57.22
2018-06-21T00:13:29.102Z,58.02
2018-06-21T00:16:32.250Z,58.22
2018-06-21T00:19:35.438Z,58.18
2018-06-21T00:22:38.594Z,57.78
2018-06-21T00:25:41.747Z,58.36
2018-06-21T00:28:44.870Z,57.99
2018-06-21T00:31:48.059Z,58.47
2018-06-21T00:34:51.204Z,58.87
2018-06-21T00:37:54.447Z,58.77
2018-06-21T00:40:57.703Z,57.94
2018-06-21T00:44:00.846Z,58.40
2018-06-21T00:47:03.984Z,58.76
2018-06-21T00:50:07.122Z,59.31
2018-06-21T00:53:10.373Z,59.49
2018-06-21T00:56:16.610Z,58.99
2018-06-21T00:59:19.779Z,59.80
2018-06-21T01:02:22.899Z,59.65
2018-06-21T01:05:26.027Z,59.73
2018-06-21T01:08:29.142Z,59.65
2018-06-21T01:11:32.311Z,60.01
2018-06-21T01:14:35.492Z,60.20
2018-06-21T01:17:38.594Z,60.11
2018-06-21T01:20:41.707Z,60.64
2018-06-21T01:23:44.923Z,60.45
2018-06-21T01:26:48.079Z,60.62
2018-06-21T01:29:51.233Z,60.75
2018-06-21T01:32:54.374Z,60.79
2018-06-21T01:35:57.525Z,60.15
2018-06-21T01:39:00.861Z,60.59
2018-06-21T01:42:03.990Z,61.37
2018-06-21T01:45:07.135Z,60.79
2018-06-21T01:48:10.276Z,60.58
2018-06-21T01:51:13.394Z,61.19
2018-06-21T01:54:16.553Z,61.57
2018-06-21T01:57:19.659Z,60.69
2018-06-21T02:00:22.773Z,60.88
2018-06-21T02:03:25.932Z,61.29
2018-06-21T02:06:29.233Z,61.71
2018-06-21T02:09:32.440Z,62.55
2018-06-21T02:12:35.654Z,61.71
2018-06-21T02:15:38.804Z,62.61
2018-06-21T02:18:42.070Z,61.83
2018-06-21T02:21:45.296Z,62.89
2018-06-21T02:24:48.448Z,63.17
2018-06-21T02:27:51.591Z,62.18
2018-06-21T02:30:54.727Z,62.20
2018-06-21T02:33:57.847Z,62.30
2018-06-21T02:37:00.963Z,61.58
2018-06-21T02:40:04.176Z,61.70
2018-06-21T02:43:07.575Z,61.65
2018-06-21T02:46:10.722Z,61.75
2018-06-21T02:49:13.919Z,61.68
2018-06-21T02:52:17.034Z,61.72
2018-06-21T02:55:20.195Z,60.37
2018-06-21T02:58:23.324Z,60.77
2018-06-21T03:01:26.442Z,60.15
2018-06-21T03:04:29.595Z,60.39
2018-06-21T03:07:32.730Z,60.43
2018-06-21T03:10:35.944Z,60.27
2018-06-21T03:13:39.151Z,60.63
2018-06-21T03:16:42.249Z,60.74
2018-06-21T03:19:45.423Z,60.91
2018-06-21T03:22:48.553Z,61.00
2018-06-21T03:25:51.683Z,61.32
2018-06-21T03:28:54.830Z,61.08
2018-06-21T03:31:58.051Z,61.17
2018-06-21T03:35:01.209Z,61.63
2018-06-21T03:38:04.350Z,61.84
2018-06-21T03:41:07.502Z,61.81
2018-06-21T03:44:10.682Z,61.75
2018-06-21T03:47:13.845Z,61.73
2018-06-21T03:50:16.973Z,61.88
2018-06-21T03:53:20.097Z,62.13
2018-06-21T03:56:23.217Z,61.97
2018-06-21T03:59:26.356Z,62.15
2018-06-21T04:02:29.457Z,61.64
2018-06-21T04:05:32.674Z,62.67
2018-06-21T04:08:35.796Z,62.18
2018-06-21T04:11:39.144Z,61.75
2018-06-21T04:14:42.261Z,61.75
2018-06-21T04:17:45.412Z,61.41
2018-06-21T04:20:48.656Z,61.18
2018-06-21T04:23:51.800Z,61.25
2018-06-21T04:26:55.015Z,61.83
2018-06-21T04:29:58.194Z,61.54
2018-06-21T04:33:02.033Z,61.59
2018-06-21T04:36:05.287Z,60.99
2018-06-21T04:39:09.148Z,61.47
2018-06-21T04:42:12.390Z,61.53
2018-06-21T04:45:15.634Z,61.52
2018-06-21T04:48:18.754Z,61.66
2018-06-21T04:51:21.931Z,61.27
2018-06-21T04:54:25.199Z,61.27
2018-06-21T04:57:28.373Z,61.30
2018-06-21T05:00:31.535Z,61.05
2018-06-21T05:03:34.810Z,60.91
2018-06-21T05:06:38.025Z,60.56
2018-06-21T05:09:41.141Z,60.67
2018-06-21T05:12:44.376Z,60.47
2018-06-21T05:15:47.502Z,60.57
2018-06-21T05:18:50.680Z,60.32
2018-06-21T05:21:53.851Z,59.98
2018-06-21T05:24:57.039Z,60.30
2018-06-21T05:28:00.197Z,60.08
2018-06-21T05:31:03.442Z,59.66
2018-06-21T05:34:06.629Z,59.48
2018-06-21T05:37:09.734Z,59.32
2018-06-21T05:40:24.545Z,59.10
2018-06-21T05:43:27.722Z,59.04
2018-06-21T05:46:30.962Z,58.61
2018-06-21T05:49:34.157Z,59.09
2018-06-21T05:52:37.333Z,57.45
2018-06-21T05:55:40.506Z,57.56
2018-06-21T05:58:43.670Z,56.50
2018-06-21T06:01:46.865Z,57.00
2018-06-21T06:04:50.081Z,56.46
2018-06-21T06:07:53.307Z,56.42
2018-06-21T06:10:56.525Z,56.64
2018-06-21T06:13:59.803Z,55.89
2018-06-21T06:17:03.042Z,55.58
2018-06-21T06:20:06.302Z,55.35
2018-06-21T06:23:09.397Z,55.78
2018-06-21T06:26:12.543Z,54.70
2018-06-21T06:29:15.710Z,54.63
2018-06-21T06:32:19.182Z,55.05
2018-06-21T06:35:26.691Z,54.64
2018-06-21T06:38:29.923Z,54.36
2018-06-21T06:41:33.115Z,54.24
2018-06-21T06:44:36.311Z,53.40
2018-06-21T06:47:39.622Z,54.00
2018-06-21T06:50:42.799Z,53.01
2018-06-21T06:53:45.988Z,53.49
2018-06-21T06:56:49.277Z,52.55
2018-06-21T06:59:52.556Z,52.77
2018-06-21T07:02:55.702Z,52.31
2018-06-21T07:05:58.897Z,52.91
2018-06-21T07:09:02.082Z,52.61
2018-06-21T07:12:05.230Z,52.56
2018-06-21T07:15:08.421Z,52.86
2018-06-21T07:18:11.612Z,52.47
2018-06-21T07:21:14.762Z,52.52
2018-06-21T07:24:17.938Z,52.50
2018-06-21T07:27:21.117Z,52.84
2018-06-21T07:30:24.801Z,52.30
2018-06-21T07:33:28.524Z,52.48
2018-06-21T07:36:31.742Z,52.00
2018-06-21T07:39:34.911Z,50.47
2018-06-21T07:42:38.227Z,50.82
2018-06-21T07:45:41.440Z,50.30
2018-06-21T07:48:45.976Z,50.87
2018-06-21T07:51:51.272Z,50.20
2018-06-21T07:54:56.037Z,50.79
2018-06-21T07:58:00.425Z,48.52
2018-06-21T08:01:04.315Z,48.32
2018-06-21T08:04:11.161Z,48.28
2018-06-21T08:07:15.737Z,48.17
2018-06-21T08:10:19.049Z,47.55
2018-06-21T08:13:23.582Z,46.62
2018-06-21T08:16:27.428Z,45.84
2018-06-21T08:19:30.664Z,45.13
2018-06-21T08:22:36.523Z,44.83
2018-06-21T08:25:40.045Z,45.54
2018-06-21T08:28:50.072Z,46.07
2018-06-21T08:31:54.593Z,46.43
2018-06-21T08:34:58.184Z,46.38
2018-06-21T08:38:01.759Z,45.87
2018-06-21T08:41:07.661Z,46.13
2018-06-21T08:44:11.606Z,45.45
2018-06-21T08:47:15.109Z,45.36
2018-06-21T08:50:18.986Z,46.55
2018-06-21T08:53:23.504Z,45.17
2018-06-21T08:56:27.753Z,45.33
2018-06-21T08:59:31.430Z,44.81
2018-06-21T09:02:35.989Z,45.57
2018-06-21T09:05:40.699Z,45.60
2018-06-21T09:08:46.013Z,45.72
2018-06-21T09:11:50.294Z,46.35
2018-06-21T09:14:55.010Z,47.09
2018-06-21T09:17:59.727Z,47.02
2018-06-21T09:21:05.360Z,46.63
2018-06-21T09:24:09.166Z,45.64
2018-06-21T09:27:14.488Z,45.16
2018-06-21T09:30:18.075Z,45.18
2018-06-21T09:33:22.689Z,45.10
2018-06-21T09:36:26.438Z,44.72
2018-06-21T09:39:35.741Z,45.23
2018-06-21T09:42:44.394Z,43.52
2018-06-21T09:45:53.045Z,43.77
2018-06-21T09:48:56.350Z,42.39
2018-06-21T09:52:04.672Z,43.10
2018-06-21T09:55:07.957Z,41.49
2018-06-21T09:58:11.608Z,41.79
2018-06-21T10:01:15.460Z,41.39
2018-06-21T10:04:20.070Z,40.58
2018-06-21T10:07:24.866Z,40.74
2018-06-21T10:10:29.167Z,39.55
2018-06-21T10:13:32.886Z,39.33
2018-06-21T10:16:36.077Z,38.39
2018-06-21T10:19:40.702Z,39.23
2018-06-21T10:22:43.873Z,38.83
2018-06-21T10:25:47.233Z,38.77
2018-06-21T10:28:50.499Z,39.04
2018-06-21T10:31:53.836Z,39.66
2018-06-21T10:35:01.884Z,37.99
2018-06-21T10:38:05.103Z,37.57
2018-06-21T10:41:08.321Z,36.98
2018-06-21T10:44:11.529Z,36.79
2018-06-21T10:47:14.757Z,37.63
2018-06-21T10:50:18.016Z,42.12
2018-06-21T10:53:21.214Z,45.90
2018-06-21T10:56:24.546Z,51.94
2018-06-21T10:59:27.765Z,51.13
2018-06-21T11:02:30.920Z,52.26
2018-06-21T11:05:34.127Z,54.14
2018-06-21T11:08:37.348Z,53.47
2018-06-21T11:11:40.521Z,57.60
2018-06-21T11:14:44.639Z,63.63
2018-06-21T11:17:47.830Z,63.75
2018-06-21T11:20:51.014Z,64.38
2018-06-21T11:23:54.208Z,65.16
2018-06-21T11:26:57.529Z,62.92
2018-06-21T11:30:00.738Z,62.88
2018-06-21T11:33:04.111Z,59.86
2018-06-21T11:36:07.412Z,61.34
2018-06-21T11:39:11.339Z,59.86
2018-06-21T11:42:14.621Z,59.30
2018-06-21T11:45:17.860Z,58.52
2018-06-21T11:48:21.263Z,57.38
2018-06-21T11:51:24.727Z,58.20
2018-06-21T11:54:28.001Z,58.34
2018-06-21T11:57:31.234Z,56.93
2018-06-21T12:00:34.424Z,57.41
2018-06-21T12:03:37.990Z,57.38
2018-06-21T12:06:41.407Z,56.99
2018-06-21T12:09:45.014Z,56.85
2018-06-21T12:12:53.058Z,57.56
2018-06-21T12:15:56.988Z,58.04
2018-06-21T12:19:02.247Z,57.87
2018-06-21T12:22:05.692Z,57.54
2018-06-21T12:25:11.436Z,59.11
2018-06-21T12:28:20.265Z,61.30
2018-06-21T12:31:25.035Z,60.38
2018-06-21T12:34:30.976Z,61.98
2018-06-21T12:37:35.822Z,60.01
2018-06-21T12:40:39.660Z,58.90
2018-06-21T12:43:43.626Z,60.32
2018-06-21T12:46:47.181Z,61.59
2018-06-21T12:49:50.564Z,62.96
2018-06-21T12:52:54.113Z,62.05
2018-06-21T12:55:57.430Z,62.58
2018-06-21T12:59:02.416Z,62.66
2018-06-21T13:02:06.277Z,63.17
2018-06-21T13:05:09.733Z,64.01
2018-06-21T13:08:18.735Z,65.07
2018-06-21T13:11:41.308Z,64.71
2018-06-21T13:14:44.547Z,63.86
2018-06-21T13:17:47.973Z,64.57
2018-06-21T13:20:52.278Z,64.73
2018-06-21T13:23:55.587Z,66.00
2018-06-21T13:26:58.935Z,66.44
2018-06-21T13:30:02.694Z,65.93
2018-06-21T13:33:06.350Z,65.91
2018-06-21T13:36:10.698Z,65.84
2018-06-21T13:39:14.406Z,64.92
2018-06-21T13:42:18.194Z,62.78
2018-06-21T13:45:22.504Z,61.67
2018-06-21T13:48:25.879Z,60.51
2018-06-21T13:51:29.756Z,60.24
2018-06-21T13:54:33.044Z,60.08
2018-06-21T13:57:36.284Z,60.10
2018-06-21T14:00:39.672Z,60.06
2018-06-21T14:03:42.934Z,59.60
2018-06-21T14:06:48.442Z,60.67
2018-06-21T14:09:52.861Z,61.42
2018-06-21T14:12:56.776Z,61.13
2018-06-21T14:16:00.240Z,57.38
2018-06-21T14:19:05.654Z,57.42
2018-06-21T14:22:09.693Z,56.05
2018-06-21T14:25:14.174Z,54.44
2018-06-21T14:28:18.176Z,53.68
2018-06-21T14:31:23.084Z,55.65
2018-06-21T14:34:26.762Z,53.91
2018-06-21T14:37:30.618Z,52.07
2018-06-21T14:40:35.352Z,51.50
2018-06-21T14:43:39.169Z,52.10
2018-06-21T14:46:42.766Z,51.72
2018-06-21T14:49:46.969Z,50.98
2018-06-21T14:52:50.803Z,51.02
2018-06-21T14:55:54.047Z,49.05
2018-06-21T14:58:57.453Z,48.40
2018-06-21T15:02:00.771Z,48.36
2018-06-21T15:05:04.210Z,47.51
2018-06-21T15:08:07.584Z,49.60
2018-06-21T15:11:11.039Z,46.72
2018-06-21T15:14:14.995Z,48.08
2018-06-21T15:17:18.366Z,47.18
2018-06-21T15:20:21.759Z,45.77
2018-06-21T15:23:25.327Z,45.92
2018-06-21T15:26:29.870Z,44.94
2018-06-21T15:29:33.186Z,44.76
2018-06-21T15:32:36.557Z,45.35
2018-06-21T15:35:39.878Z,44.31
2018-06-21T15:38:43.399Z,44.96
2018-06-21T15:41:46.725Z,44.47
2018-06-21T15:44:50.539Z,44.68
2018-06-21T15:47:55.188Z,44.94
2018-06-21T15:50:58.833Z,45.26
2018-06-21T15:54:06.389Z,46.19
2018-06-21T15:57:13.712Z,46.06
2018-06-21T16:00:17.797Z,46.13
2018-06-21T16:03:26.594Z,45.75
2018-06-21T16:06:31.979Z,44.50
2018-06-21T16:09:37.324Z,44.44
2018-06-21T16:12:41.578Z,43.04
2018-06-21T16:15:47.459Z,43.49
2018-06-21T16:18:52.446Z,43.55
2018-06-21T16:21:58.805Z,43.43
2018-06-21T16:25:03.859Z,43.74
2018-06-21T16:28:09.267Z,43.25
2018-06-21T16:31:13.815Z,43.66
2018-06-21T16:34:18.429Z,43.29
2018-06-21T16:37:25.558Z,42.73
2018-06-21T16:40:30.676Z,42.36
2018-06-21T16:43:34.359Z,43.01
2018-06-21T16:46:37.990Z,43.68
2018-06-21T16:49:49.980Z,43.73
2018-06-21T16:52:54.198Z,43.63
2018-06-21T16:55:59.030Z,43.94
2018-06-21T16:59:02.886Z,44.03
2018-06-21T17:02:07.980Z,43.55
2018-06-21T17:05:11.742Z,43.49
2018-06-21T17:11:28.703Z,43.17
2018-06-21T17:14:34.398Z,44.09
2018-06-21T17:18:02.446Z,43.46
2018-06-21T17:21:06.959Z,42.32
2018-06-21T17:24:10.825Z,42.14
2018-06-21T17:27:15.079Z,42.16
2018-06-21T17:30:23.451Z,42.15
2018-06-21T17:33:29.453Z,41.31
2018-06-21T17:36:35.467Z,42.72
2018-06-21T17:39:39.320Z,42.40
2018-06-21T17:42:45.673Z,43.16
2018-06-21T17:45:49.556Z,43.32
2018-06-21T17:48:53.550Z,43.23
2018-06-21T17:51:58.715Z,43.33
2018-06-21T17:55:03.012Z,43.80
2018-06-21T17:58:08.355Z,44.07
2018-06-21T18:01:13.808Z,44.58
2018-06-21T18:04:18.745Z,44.94
2018-06-21T18:07:22.587Z,44.90
2018-06-21T18:10:26.944Z,45.46
2018-06-21T18:13:30.963Z,45.87
2018-06-21T18:16:35.458Z,45.53
2018-06-21T18:19:44.710Z,45.28
2018-06-21T18:22:49.636Z,45.16
2018-06-21T18:25:53.525Z,44.54
2018-06-21T18:28:57.361Z,43.94
2018-06-21T18:32:01.444Z,44.72
2018-06-21T18:35:05.336Z,45.54
2018-06-21T18:38:10.555Z,45.35
2018-06-21T18:41:14.742Z,45.67
2018-06-21T18:44:19.075Z,45.78
2018-06-21T18:47:22.941Z,46.43
2018-06-21T18:50:27.289Z,47.09
2018-06-21T18:53:31.113Z,46.60
2018-06-21T18:56:34.835Z,46.97
2018-06-21T18:59:38.758Z,46.98
2018-06-21T19:02:43.845Z,46.87
2018-06-21T19:05:48.966Z,47.72
2018-06-21T19:11:04.624Z,47.46
2018-06-21T19:14:08.772Z,47.74
2018-06-21T19:17:13.026Z,47.67
2018-06-21T19:20:17.137Z,47.37
2018-06-21T19:23:20.746Z,46.58
2018-06-21T19:26:26.681Z,46.93
2018-06-21T19:29:30.577Z,47.10
2018-06-21T19:32:34.428Z,47.45
2018-06-21T19:35:38.028Z,47.61
2018-06-21T19:38:41.657Z,47.77
2018-06-21T19:41:45.508Z,47.85
2018-06-21T19:44:55.031Z,48.69
2018-06-21T19:48:18.854Z,48.24
2018-06-21T19:51:22.625Z,48.17
2018-06-21T19:54:26.395Z,48.53
2018-06-21T19:57:30.341Z,48.86
2018-06-21T20:00:33.929Z,49.13
2018-06-21T20:03:37.491Z,49.13
2018-06-21T20:06:41.730Z,49.60
2018-06-21T20:09:45.872Z,49.47
2018-06-21T20:12:49.518Z,50.00
2018-06-21T20:15:54.642Z,50.28
2018-06-21T20:19:02.557Z,50.01
2018-06-21T20:22:06.581Z,50.51
2018-06-21T20:25:10.295Z,50.54
2018-06-21T20:28:13.922Z,50.62
2018-06-21T20:31:18.159Z,50.88
2018-06-21T20:34:21.767Z,50.66
2018-06-21T20:37:25.572Z,50.83
2018-06-21T20:40:30.949Z,50.99
2018-06-21T20:43:34.505Z,51.29
2018-06-21T20:46:37.902Z,51.33
2018-06-21T20:49:41.437Z,51.08
2018-06-21T20:52:45.602Z,51.06
2018-06-21T20:55:50.985Z,51.14
2018-06-21T20:58:54.581Z,51.15
2018-06-21T21:01:58.096Z,51.70
2018-06-21T21:05:05.058Z,51.42
2018-06-21T21:08:08.627Z,51.58
2018-06-21T21:11:11.921Z,50.94
2018-06-21T21:14:17.483Z,51.42
2018-06-21T21:17:20.825Z,52.09
2018-06-21T21:20:24.759Z,52.11
2018-06-21T21:23:28.131Z,52.38
2018-06-21T21:26:31.403Z,52.72
2018-06-21T21:29:35.521Z,52.54
2018-06-21T21:32:38.908Z,52.80
2018-06-21T21:35:43.034Z,53.45
2018-06-21T21:38:46.358Z,53.33
2018-06-21T21:41:49.949Z,53.24
2018-06-21T21:44:53.290Z,53.43
2018-06-21T21:47:57.280Z,52.95
2018-06-21T21:51:01.364Z,53.90
2018-06-21T21:54:06.155Z,54.12
2018-06-21T21:57:09.495Z,54.29
2018-06-21T22:00:25.249Z,54.46
2018-06-21T22:03:30.474Z,54.38
2018-06-21T22:06:35.816Z,54.58
2018-06-21T22:09:39.505Z,54.76
2018-06-21T22:12:46.452Z,54.89
2018-06-21T22:15:50.207Z,54.90
2018-06-21T22:18:53.578Z,54.74
2018-06-21T22:21:56.975Z,54.75
2018-06-21T22:25:00.323Z,55.45
2018-06-21T22:28:03.662Z,55.39
2018-06-21T22:31:06.874Z,55.61
2018-06-21T22:34:10.376Z,56.26
2018-06-21T22:37:13.778Z,56.29
2018-06-21T22:40:16.999Z,57.08
2018-06-21T22:43:20.379Z,57.24
2018-06-21T22:46:23.769Z,57.66
2018-06-21T22:49:26.972Z,57.56
2018-06-21T22:52:30.260Z,57.66
2018-06-21T22:55:33.543Z,57.75
2018-06-21T22:58:36.798Z,58.11
2018-06-21T23:01:40.094Z,58.03
2018-06-21T23:04:43.332Z,57.86
2018-06-21T23:07:46.627Z,57.47
2018-06-21T23:10:49.912Z,57.41
2018-06-21T23:13:53.249Z,57.00
2018-06-21T23:16:58.791Z,57.48
2018-06-21T23:20:02.018Z,57.41
2018-06-21T23:23:05.468Z,57.71
2018-06-21T23:26:08.676Z,57.43
2018-06-21T23:29:11.915Z,57.62
2018-06-21T23:32:15.117Z,57.26
2018-06-21T23:35:18.303Z,57.01
2018-06-21T23:38:21.521Z,57.30
2018-06-21T23:41:24.703Z,57.19
2018-06-21T23:44:27.893Z,57.86
2018-06-21T23:47:31.093Z,58.66
2018-06-21T23:50:34.279Z,58.30
2018-06-21T23:53:37.470Z,58.34
2018-06-21T23:56:41.482Z,58.57
2018-06-21T23:59:44.665Z,58.93
